createdAt,value
2019-02-07T00:00:58.824Z,29.70
2019-02-07T00:03:20.081Z,28.10
2019-02-07T00:05:41.551Z,30.23
2019-02-07T00:08:03.098Z,27.17
2019-02-07T00:10:24.461Z,27.03
2019-02-07T00:12:46.182Z,23.77
2019-02-07T00:15:09.326Z,25.77
2019-02-07T00:17:30.684Z,25.57
2019-02-07T00:19:52.122Z,24.77
2019-02-07T00:22:13.409Z,30.07
2019-02-07T00:24:42.565Z,26.23
2019-02-07T00:26:57.950Z,27.60
2019-02-07T00:29:19.201Z,29.30
2019-02-07T00:31:40.449Z,29.00
2019-02-07T00:34:02.841Z,29.57
2019-02-07T00:36:25.265Z,27.10
2019-02-07T00:38:46.485Z,26.57
2019-02-07T00:41:07.711Z,26.40
2019-02-07T00:43:29.030Z,28.20
2019-02-07T00:45:50.376Z,26.73
2019-02-07T00:48:11.675Z,26.07
2019-02-07T00:50:33.237Z,27.67
2019-02-07T00:52:54.574Z,27.03
2019-02-07T00:55:17.819Z,28.00
2019-02-07T00:57:39.172Z,27.07
2019-02-07T01:00:00.533Z,27.30
2019-02-07T01:02:21.947Z,26.50
2019-02-07T01:04:46.473Z,25.53
2019-02-07T01:07:07.915Z,28.07
2019-02-07T01:09:29.303Z,27.23
2019-02-07T01:11:51.038Z,25.27
2019-02-07T01:14:12.373Z,25.20
2019-02-07T01:16:33.739Z,21.93
2019-02-07T01:18:55.061Z,23.67
2019-02-07T01:21:16.451Z,25.00
2019-02-07T01:23:37.758Z,23.83
2019-02-07T01:25:59.042Z,22.40
2019-02-07T01:28:20.253Z,27.03
2019-02-07T01:30:41.496Z,23.33
2019-02-07T01:33:02.801Z,22.50
2019-02-07T01:35:25.239Z,24.93
2019-02-07T01:37:47.039Z,24.07
2019-02-07T01:40:11.651Z,23.40
2019-02-07T01:42:33.030Z,27.77
2019-02-07T01:44:55.345Z,26.03
2019-02-07T01:47:17.007Z,23.30
2019-02-07T01:49:39.539Z,23.87
2019-02-07T01:52:00.754Z,24.23
2019-02-07T01:54:21.964Z,25.00
2019-02-07T01:56:43.188Z,25.37
2019-02-07T01:59:07.533Z,23.83
2019-02-07T02:01:28.779Z,24.33
2019-02-07T02:03:50.078Z,25.43
2019-02-07T02:06:11.621Z,23.80
2019-02-07T02:08:32.987Z,24.70
2019-02-07T02:10:54.318Z,24.20
2019-02-07T02:13:15.642Z,23.87
2019-02-07T02:15:38.018Z,20.27
2019-02-07T02:17:59.730Z,20.80
2019-02-07T02:20:22.855Z,21.70
2019-02-07T02:22:44.245Z,23.43
2019-02-07T02:25:08.737Z,22.40
2019-02-07T02:27:30.084Z,23.13
2019-02-07T02:29:52.631Z,25.87
2019-02-07T02:32:13.961Z,24.80
2019-02-07T02:34:35.275Z,25.00
2019-02-07T02:36:56.959Z,24.93
2019-02-07T02:39:21.254Z,26.87
2019-02-07T02:41:42.860Z,29.33
2019-02-07T02:44:04.187Z,28.57
2019-02-07T02:46:25.494Z,30.07
2019-02-07T02:48:46.801Z,29.83
2019-02-07T02:51:10.609Z,33.20
2019-02-07T02:53:31.803Z,29.67
2019-02-07T02:55:53.628Z,30.63
2019-02-07T02:58:15.231Z,33.40
2019-02-07T03:00:44.062Z,31.00
2019-02-07T03:03:07.326Z,31.60
2019-02-07T03:05:45.446Z,31.10
2019-02-07T03:10:52.927Z,30.03
2019-02-07T03:13:16.399Z,28.07
2019-02-07T03:15:49.582Z,30.33
2019-02-07T03:18:10.730Z,34.80
2019-02-07T03:20:39.630Z,31.93
2019-02-07T03:23:11.593Z,31.97
2019-02-07T03:25:37.840Z,33.20
2019-02-07T03:28:01.068Z,33.70
2019-02-07T03:30:30.267Z,32.73
2019-02-07T03:33:02.270Z,31.77
2019-02-07T03:35:28.190Z,31.70
2019-02-07T03:37:51.435Z,34.77
2019-02-07T03:40:26.677Z,32.73
2019-02-07T03:42:52.804Z,33.90
2019-02-07T03:45:33.433Z,33.23
2019-02-07T03:47:56.637Z,33.73
2019-02-07T03:50:19.853Z,33.90
2019-02-07T03:52:45.510Z,29.00
2019-02-07T03:55:08.727Z,26.83
2019-02-07T03:57:46.887Z,25.13
2019-02-07T04:00:11.672Z,24.77
2019-02-07T04:02:47.385Z,22.50
2019-02-07T04:05:17.355Z,22.97
2019-02-07T04:07:57.074Z,25.60
2019-02-07T04:10:29.361Z,25.70
2019-02-07T04:12:53.125Z,24.70
2019-02-07T04:15:42.219Z,23.87
2019-02-07T04:20:59.827Z,23.30
2019-02-07T04:23:40.014Z,22.60
2019-02-07T04:26:15.600Z,21.13
2019-02-07T04:28:47.973Z,20.50
2019-02-07T04:33:55.340Z,21.93
2019-02-07T04:36:18.591Z,21.23
2019-02-07T04:38:58.314Z,18.73
2019-02-07T04:41:27.225Z,21.00
2019-02-07T04:44:06.925Z,18.67
2019-02-07T04:46:47.024Z,17.60
2019-02-07T04:49:26.621Z,19.97
2019-02-07T04:51:57.376Z,16.10
2019-02-07T04:54:34.361Z,18.47
2019-02-07T04:56:57.692Z,18.83
2019-02-07T04:59:21.016Z,18.83
2019-02-07T05:01:46.962Z,17.57
2019-02-07T05:04:13.185Z,19.63
2019-02-07T05:06:51.744Z,23.17
2019-02-07T05:09:23.823Z,18.77
2019-02-07T05:11:49.872Z,21.53
2019-02-07T05:14:15.628Z,20.40
2019-02-07T05:16:55.288Z,18.00
2019-02-07T05:19:21.151Z,18.17
2019-02-07T05:22:01.305Z,15.87
2019-02-07T05:24:39.482Z,17.23
2019-02-07T05:27:05.679Z,16.97
2019-02-07T05:29:44.223Z,18.33
2019-02-07T05:32:07.723Z,20.57
2019-02-07T05:34:36.783Z,18.40
2019-02-07T05:37:02.707Z,15.73
2019-02-07T05:39:26.261Z,17.57
2019-02-07T05:41:55.227Z,18.33
2019-02-07T05:44:35.388Z,16.50
2019-02-07T05:47:11.554Z,17.63
2019-02-07T05:49:47.050Z,16.37
2019-02-07T05:52:13.067Z,21.40
2019-02-07T05:54:54.078Z,21.57
2019-02-07T05:57:23.648Z,18.70
2019-02-07T06:00:03.558Z,20.27
2019-02-07T06:02:45.726Z,21.53
2019-02-07T06:05:26.802Z,20.60
2019-02-07T06:08:06.837Z,18.07
2019-02-07T06:10:49.117Z,17.60
2019-02-07T06:13:20.096Z,17.57
2019-02-07T06:16:00.890Z,16.27
2019-02-07T06:18:40.879Z,18.53
2019-02-07T06:21:10.413Z,16.00
2019-02-07T06:23:49.998Z,16.37
2019-02-07T06:26:19.124Z,23.57
2019-02-07T06:28:59.048Z,16.60
2019-02-07T06:34:07.672Z,51.57
2019-02-07T06:36:35.026Z,17.37
2019-02-07T06:39:07.648Z,15.83
2019-02-07T06:41:49.069Z,15.73
2019-02-07T06:44:27.495Z,16.43
2019-02-07T06:46:56.509Z,17.57
2019-02-07T06:49:36.408Z,14.27
2019-02-07T06:51:59.612Z,16.27
2019-02-07T06:54:28.524Z,15.40
2019-02-07T06:56:54.433Z,15.73
2019-02-07T06:59:30.051Z,13.43
2019-02-07T07:04:47.648Z,15.10
2019-02-07T07:07:11.114Z,15.27
2019-02-07T07:09:34.336Z,15.60
2019-02-07T07:12:14.256Z,16.13
2019-02-07T07:14:49.337Z,15.03
2019-02-07T07:17:26.075Z,15.63
2019-02-07T07:19:57.024Z,15.30
2019-02-07T07:22:22.744Z,15.20
2019-02-07T07:24:54.685Z,15.83
2019-02-07T07:27:33.283Z,16.93
2019-02-07T07:30:05.982Z,17.63
2019-02-07T07:32:32.530Z,17.10
2019-02-07T07:35:13.831Z,23.63
2019-02-07T07:37:42.869Z,22.17
2019-02-07T07:40:30.590Z,26.10
2019-02-07T07:43:03.276Z,22.23
2019-02-07T07:45:35.707Z,20.47
2019-02-07T07:47:58.849Z,19.33
2019-02-07T07:50:30.942Z,18.17
2019-02-07T07:53:12.670Z,15.77
2019-02-07T07:55:44.744Z,15.10
2019-02-07T07:58:08.035Z,15.30
2019-02-07T08:00:43.088Z,17.77
2019-02-07T08:03:09.303Z,18.23
2019-02-07T08:05:38.562Z,14.07
2019-02-07T08:08:18.556Z,14.03
2019-02-07T08:10:48.897Z,18.43
2019-02-07T08:13:12.112Z,13.13
2019-02-07T08:15:41.360Z,16.33
2019-02-07T08:18:22.765Z,15.50
2019-02-07T08:20:52.074Z,14.73
2019-02-07T08:23:20.991Z,12.80
2019-02-07T08:26:00.709Z,14.43
2019-02-07T08:28:33.061Z,15.97
2019-02-07T08:31:11.269Z,13.23
2019-02-07T08:33:39.174Z,14.47
2019-02-07T08:36:05.240Z,13.57
2019-02-07T08:38:45.523Z,12.90
2019-02-07T08:41:17.609Z,17.07
2019-02-07T08:43:43.117Z,13.23
2019-02-07T08:46:08.737Z,14.83
2019-02-07T08:48:37.668Z,14.70
2019-02-07T08:51:03.668Z,14.20
2019-02-07T08:53:26.799Z,13.50
2019-02-07T08:56:01.767Z,11.90
2019-02-07T08:58:27.771Z,11.27
2019-02-07T09:00:51.306Z,13.77
2019-02-07T09:03:14.441Z,14.03
2019-02-07T09:05:46.157Z,13.60
2019-02-07T09:11:20.748Z,13.80
2019-02-07T09:13:53.792Z,13.70
2019-02-07T09:16:19.418Z,14.47
2019-02-07T09:18:59.368Z,15.17
2019-02-07T09:21:28.949Z,13.73
2019-02-07T09:23:52.477Z,14.83
2019-02-07T09:26:24.969Z,13.20
2019-02-07T09:29:04.941Z,14.50
2019-02-07T09:31:44.825Z,14.63
2019-02-07T09:34:14.234Z,15.53
2019-02-07T09:36:54.037Z,12.23
2019-02-07T09:39:25.818Z,12.80
2019-02-07T09:41:55.135Z,16.73
2019-02-07T09:47:05.809Z,21.50
2019-02-07T09:49:34.887Z,15.30
2019-02-07T09:52:07.178Z,14.90
2019-02-07T09:54:48.939Z,14.80
2019-02-07T09:57:20.793Z,14.50
2019-02-07T09:59:52.822Z,16.77
2019-02-07T10:02:27.725Z,15.73
2019-02-07T10:04:50.863Z,15.60
2019-02-07T10:07:29.342Z,16.20
2019-02-07T10:10:07.568Z,15.57
2019-02-07T10:12:36.736Z,16.90
2019-02-07T10:15:06.045Z,20.30
2019-02-07T10:17:38.096Z,18.63
2019-02-07T10:20:10.807Z,17.47
2019-02-07T10:22:52.396Z,19.77
2019-02-07T10:25:21.966Z,21.17
2019-02-07T10:27:45.223Z,17.67
2019-02-07T10:30:17.401Z,18.70
2019-02-07T10:32:43.733Z,19.20
2019-02-07T10:35:22.451Z,21.63
2019-02-07T10:37:45.848Z,25.10
2019-02-07T10:40:24.957Z,27.13
2019-02-07T10:42:50.752Z,27.43
2019-02-07T10:45:20.620Z,24.97
2019-02-07T10:48:00.143Z,24.13
2019-02-07T10:50:23.365Z,28.57
2019-02-07T10:52:49.514Z,24.43
2019-02-07T10:55:21.436Z,27.13
2019-02-07T10:57:46.821Z,27.60
2019-02-07T11:00:24.995Z,25.43
2019-02-07T11:02:48.548Z,25.53
2019-02-07T11:05:29.291Z,27.87
2019-02-07T11:08:08.820Z,23.97
2019-02-07T11:10:41.448Z,25.10
2019-02-07T11:13:19.585Z,23.80
2019-02-07T11:16:00.816Z,22.90
2019-02-07T11:18:55.594Z,24.27
2019-02-07T11:21:35.717Z,27.27
2019-02-07T11:24:07.594Z,27.47
2019-02-07T11:26:47.005Z,23.93
2019-02-07T11:29:26.931Z,22.33
2019-02-07T11:31:50.198Z,22.73
2019-02-07T11:34:30.023Z,24.03
2019-02-07T11:36:59.479Z,22.97
2019-02-07T11:39:31.426Z,21.93
2019-02-07T11:41:57.755Z,21.00
2019-02-07T11:44:21.037Z,23.60
2019-02-07T11:49:48.014Z,21.97
2019-02-07T11:52:11.221Z,20.83
2019-02-07T11:54:34.513Z,22.77
2019-02-07T11:57:14.541Z,22.27
2019-02-07T11:59:37.743Z,25.20
2019-02-07T12:02:17.260Z,21.80
2019-02-07T12:04:43.685Z,21.40
2019-02-07T12:07:06.804Z,22.40
2019-02-07T12:09:30.003Z,20.43
2019-02-07T12:11:56.528Z,23.23
2019-02-07T12:14:31.499Z,22.97
2019-02-07T12:17:11.820Z,26.33
2019-02-07T12:19:37.865Z,19.10
2019-02-07T12:22:17.579Z,22.33
2019-02-07T12:24:40.752Z,21.00
2019-02-07T12:27:12.938Z,20.10
2019-02-07T12:29:51.827Z,21.33
2019-02-07T12:32:15.022Z,22.87
2019-02-07T12:34:38.146Z,22.20
2019-02-07T12:37:07.259Z,23.70
2019-02-07T12:39:36.809Z,20.50
2019-02-07T12:42:31.002Z,20.03
2019-02-07T12:44:59.749Z,20.47
2019-02-07T12:47:38.379Z,20.57
2019-02-07T12:50:07.317Z,24.93
2019-02-07T12:52:39.478Z,21.57
2019-02-07T12:55:05.370Z,21.47
2019-02-07T12:57:28.568Z,17.40
2019-02-07T13:00:08.316Z,21.47
2019-02-07T13:02:31.664Z,22.87
2019-02-07T13:05:01.616Z,22.27
2019-02-07T13:07:41.262Z,24.47
2019-02-07T13:10:23.458Z,19.23
2019-02-07T13:12:46.586Z,22.87
2019-02-07T13:15:22.250Z,21.13
2019-02-07T13:17:45.663Z,23.87
2019-02-07T13:20:34.868Z,24.80
2019-02-07T13:23:06.614Z,22.07
2019-02-07T13:25:29.847Z,23.50
2019-02-07T13:28:04.754Z,25.23
2019-02-07T13:30:27.994Z,28.67
2019-02-07T13:33:09.601Z,23.10
2019-02-07T13:35:50.426Z,23.33
2019-02-07T13:38:16.563Z,23.47
2019-02-07T13:40:56.323Z,30.53
2019-02-07T13:43:28.372Z,24.10
2019-02-07T13:46:08.215Z,29.03
2019-02-07T13:48:31.432Z,22.67
2019-02-07T13:51:09.611Z,24.20
2019-02-07T13:53:49.403Z,26.03
2019-02-07T13:56:29.452Z,23.57
2019-02-07T13:59:01.199Z,26.63
2019-02-07T14:01:39.249Z,22.73
2019-02-07T14:04:11.048Z,24.07
2019-02-07T14:06:40.041Z,21.83
2019-02-07T14:17:56.038Z,25.03
2019-02-07T14:20:21.757Z,21.13
2019-02-07T14:23:03.344Z,20.23
2019-02-07T14:25:26.942Z,19.40
2019-02-07T14:28:05.116Z,21.63
2019-02-07T14:30:44.901Z,19.83
2019-02-07T14:39:05.729Z,21.43
2019-02-07T14:44:33.031Z,19.50
2019-02-07T14:46:54.246Z,23.83
2019-02-07T14:49:15.543Z,20.87
2019-02-07T14:51:36.880Z,21.57
2019-02-07T14:54:00.663Z,23.10
2019-02-07T14:56:21.611Z,21.77
2019-02-07T14:58:43.396Z,20.83
2019-02-07T15:01:04.649Z,19.67
2019-02-07T15:03:25.959Z,19.57
2019-02-07T15:05:47.252Z,22.40
2019-02-07T15:08:08.594Z,21.77
2019-02-07T15:10:29.851Z,21.37
2019-02-07T15:12:51.073Z,21.80
2019-02-07T15:15:15.055Z,20.33
2019-02-07T15:17:36.290Z,20.97
2019-02-07T15:19:57.591Z,24.07
2019-02-07T15:22:18.803Z,21.90
2019-02-07T15:24:40.016Z,29.97
2019-02-07T15:27:01.212Z,22.93
2019-02-07T15:29:22.556Z,22.30
2019-02-07T15:31:43.838Z,23.17
2019-02-07T15:34:05.071Z,29.40
2019-02-07T15:36:26.411Z,20.77
2019-02-07T15:38:47.719Z,22.83
2019-02-07T15:41:08.918Z,22.33
2019-02-07T15:43:30.402Z,22.33
2019-02-07T15:45:59.714Z,21.13
2019-02-07T15:48:20.926Z,21.13
2019-02-07T15:50:42.135Z,22.27
2019-02-07T15:53:05.267Z,21.27
2019-02-07T15:55:26.565Z,20.53
2019-02-07T15:57:47.851Z,26.00
2019-02-07T16:02:54.408Z,19.37
2019-02-07T16:05:15.824Z,17.30
2019-02-07T16:07:37.627Z,21.20
2019-02-07T16:10:00.461Z,15.77
2019-02-07T16:12:22.252Z,16.20
2019-02-07T16:14:43.472Z,16.37
2019-02-07T16:17:04.931Z,21.07
2019-02-07T16:19:26.240Z,20.07
2019-02-07T16:21:47.690Z,21.87
2019-02-07T16:24:09.006Z,18.80
2019-02-07T16:26:30.630Z,24.13
2019-02-07T16:28:51.935Z,21.63
2019-02-07T16:31:13.723Z,17.60
2019-02-07T16:33:35.531Z,17.50
2019-02-07T16:35:57.007Z,20.67
2019-02-07T16:38:18.383Z,16.93
2019-02-07T16:40:39.577Z,17.60
2019-02-07T16:43:00.802Z,16.03
2019-02-07T16:45:23.429Z,18.27
2019-02-07T16:47:50.740Z,18.00
2019-02-07T16:50:34.259Z,19.03
2019-02-07T16:52:55.827Z,18.90
2019-02-07T16:55:17.019Z,16.77
2019-02-07T16:57:38.246Z,16.47
2019-02-07T16:59:59.557Z,16.40
2019-02-07T17:02:20.810Z,18.70
2019-02-07T17:04:42.117Z,15.90
2019-02-07T17:07:04.519Z,16.77
2019-02-07T17:09:26.551Z,15.43
2019-02-07T17:11:47.751Z,17.10
2019-02-07T17:14:08.968Z,15.93
2019-02-07T17:16:30.144Z,16.87
2019-02-07T17:18:51.651Z,18.33
2019-02-07T17:21:13.454Z,21.40
2019-02-07T17:23:34.671Z,20.40
2019-02-07T17:25:56.005Z,18.60
2019-02-07T17:28:17.201Z,15.63
2019-02-07T17:30:38.506Z,16.07
2019-02-07T17:32:59.818Z,17.23
2019-02-07T17:35:21.041Z,16.33
2019-02-07T17:37:42.348Z,18.10
2019-02-07T17:40:28.267Z,13.90
2019-02-07T17:42:49.685Z,14.73
2019-02-07T17:45:14.489Z,15.07
2019-02-07T17:47:36.731Z,16.80
2019-02-07T17:49:58.433Z,14.80
2019-02-07T17:52:21.150Z,13.07
2019-02-07T17:54:42.372Z,13.53
2019-02-07T17:57:03.651Z,14.00
2019-02-07T17:59:24.877Z,12.53
2019-02-07T18:01:47.376Z,12.23
2019-02-07T18:04:08.667Z,12.87
2019-02-07T18:06:29.876Z,24.70
2019-02-07T18:08:51.273Z,12.83
2019-02-07T18:11:14.132Z,16.93
2019-02-07T18:13:35.434Z,13.03
2019-02-07T18:16:10.100Z,13.23
2019-02-07T18:18:31.461Z,14.00
2019-02-07T18:20:53.294Z,15.47
2019-02-07T18:23:14.531Z,12.77
2019-02-07T18:25:37.051Z,13.77
2019-02-07T18:27:58.843Z,14.03
2019-02-07T18:30:21.314Z,13.37
2019-02-07T18:32:42.649Z,13.57
2019-02-07T18:35:04.669Z,15.73
2019-02-07T18:37:25.881Z,15.40
2019-02-07T18:39:47.407Z,15.27
2019-02-07T18:42:08.777Z,16.67
2019-02-07T18:44:32.915Z,15.10
2019-02-07T18:46:54.153Z,15.90
2019-02-07T18:49:28.454Z,13.77
2019-02-07T18:51:49.778Z,14.30
2019-02-07T18:54:11.029Z,14.27
2019-02-07T18:56:32.232Z,17.83
2019-02-07T18:58:54.387Z,12.47
2019-02-07T19:01:15.818Z,13.27
2019-02-07T19:03:37.760Z,12.73
2019-02-07T19:05:59.501Z,11.10
2019-02-07T19:08:20.831Z,12.97
2019-02-07T19:10:42.059Z,9.00
2019-02-07T19:13:03.965Z,9.60
2019-02-07T19:15:31.592Z,9.87
2019-02-07T19:17:52.882Z,9.80
2019-02-07T19:20:16.007Z,8.47
2019-02-07T19:22:37.302Z,9.80
2019-02-07T19:24:58.506Z,9.27
2019-02-07T19:27:19.740Z,8.30
2019-02-07T19:29:41.963Z,9.37
2019-02-07T19:32:03.311Z,7.53
2019-02-07T19:34:24.637Z,6.37
2019-02-07T19:36:45.859Z,6.97
2019-02-07T19:39:08.153Z,8.03
2019-02-07T19:41:29.483Z,5.30
2019-02-07T19:43:50.663Z,6.87
2019-02-07T19:46:12.184Z,12.47
2019-02-07T19:48:33.891Z,6.83
2019-02-07T19:50:55.560Z,4.87
2019-02-07T19:53:16.840Z,5.83
2019-02-07T19:55:38.399Z,7.63
2019-02-07T19:57:59.913Z,6.07
2019-02-07T20:00:24.519Z,33.17
2019-02-07T20:02:45.835Z,7.17
2019-02-07T20:05:08.847Z,5.83
2019-02-07T20:07:30.280Z,5.50
2019-02-07T20:09:51.646Z,5.77
2019-02-07T20:12:14.453Z,6.20
2019-02-07T20:14:35.776Z,5.87
2019-02-07T20:16:57.079Z,5.73
2019-02-07T20:19:18.288Z,5.23
2019-02-07T20:21:39.812Z,5.77
2019-02-07T20:24:01.030Z,6.50
2019-02-07T20:26:22.353Z,6.27
2019-02-07T20:28:43.881Z,5.03
2019-02-07T20:31:05.183Z,6.00
2019-02-07T20:33:26.551Z,5.37
2019-02-07T20:35:47.903Z,7.97
2019-02-07T20:38:09.727Z,6.73
2019-02-07T20:40:31.045Z,9.40
2019-02-07T20:42:52.810Z,6.83
2019-02-07T20:45:14.804Z,6.67
2019-02-07T20:47:36.322Z,8.53
2019-02-07T20:49:57.556Z,9.67
2019-02-07T20:52:19.368Z,6.87
2019-02-07T20:54:40.747Z,7.13
2019-02-07T20:57:01.993Z,6.23
2019-02-07T20:59:23.288Z,9.40
2019-02-07T21:01:44.921Z,9.97
2019-02-07T21:04:06.311Z,9.90
2019-02-07T21:06:27.629Z,7.90
2019-02-07T21:08:48.925Z,7.67
2019-02-07T21:11:10.435Z,8.07
2019-02-07T21:13:31.675Z,8.60
2019-02-07T21:15:53.196Z,10.70
2019-02-07T21:18:14.525Z,9.20
2019-02-07T21:20:36.798Z,9.67
2019-02-07T21:22:59.581Z,7.00
2019-02-07T21:25:24.003Z,6.73
2019-02-07T21:27:45.595Z,7.80
2019-02-07T21:30:22.652Z,7.40
2019-02-07T21:32:43.889Z,6.37
2019-02-07T21:35:09.121Z,6.47
2019-02-07T21:37:32.956Z,6.97
2019-02-07T21:39:54.170Z,7.67
2019-02-07T21:42:15.525Z,7.27
2019-02-07T21:44:36.914Z,8.17
2019-02-07T21:46:58.285Z,5.50
2019-02-07T21:49:19.609Z,7.73
2019-02-07T21:51:42.079Z,6.20
2019-02-07T21:54:03.286Z,8.90
2019-02-07T21:56:24.508Z,6.47
2019-02-07T21:58:45.829Z,4.77
2019-02-07T22:01:07.129Z,6.13
2019-02-07T22:03:29.549Z,7.33
2019-02-07T22:05:50.774Z,5.13
2019-02-07T22:08:12.146Z,6.97
2019-02-07T22:10:33.586Z,6.47
2019-02-07T22:12:54.797Z,5.87
2019-02-07T22:15:19.799Z,8.67
2019-02-07T22:17:41.536Z,8.07
2019-02-07T22:20:06.635Z,9.43
2019-02-07T22:22:28.064Z,5.60
2019-02-07T22:24:49.346Z,5.87
2019-02-07T22:27:10.555Z,6.67
2019-02-07T22:29:31.756Z,8.57
2019-02-07T22:31:52.999Z,5.53
2019-02-07T22:34:14.363Z,8.67
2019-02-07T22:36:35.644Z,8.63
2019-02-07T22:38:57.237Z,25.73
2019-02-07T22:41:18.477Z,6.20
2019-02-07T22:43:39.757Z,8.23
2019-02-07T22:46:00.942Z,5.60
2019-02-07T22:48:24.433Z,9.60
2019-02-07T22:50:45.629Z,6.87
2019-02-07T22:53:06.838Z,6.87
2019-02-07T22:55:28.283Z,8.03
2019-02-07T22:57:49.605Z,7.47
2019-02-07T23:00:41.033Z,6.00
2019-02-07T23:03:06.580Z,6.00
2019-02-07T23:05:27.841Z,5.50
2019-02-07T23:07:49.084Z,8.47
2019-02-07T23:10:10.555Z,21.30
2019-02-07T23:12:31.769Z,15.23
2019-02-07T23:14:53.131Z,13.83
2019-02-07T23:17:14.438Z,5.50
2019-02-07T23:19:35.855Z,5.40
2019-02-07T23:21:57.077Z,6.77
2019-02-07T23:24:18.427Z,6.83
2019-02-07T23:26:40.135Z,8.07
2019-02-07T23:29:01.659Z,6.20
2019-02-07T23:31:22.966Z,6.30
2019-02-07T23:33:44.286Z,5.60
2019-02-07T23:36:05.600Z,4.73
2019-02-07T23:38:26.866Z,6.53
2019-02-07T23:40:48.228Z,6.37
2019-02-07T23:43:09.463Z,7.83
2019-02-07T23:45:30.838Z,4.10
2019-02-07T23:47:52.180Z,7.10
2019-02-07T23:50:13.638Z,6.00
2019-02-07T23:52:34.853Z,4.87
2019-02-07T23:54:56.206Z,5.23
2019-02-07T23:57:17.519Z,9.00
2019-02-07T23:59:38.950Z,5.27
